sensor_id;sensor_type;location;lat;lon;timestamp;temperature;humidity
76897;SHT30;65856;52.178;21.176;2023-02-15T00:01:13;5.32;79.64
76897;SHT30;65856;52.178;21.176;2023-02-15T00:03:43;5.36;79.60
76897;SHT30;65856;52.178;21.176;2023-02-15T00:06:16;5.41;79.48
76897;SHT30;65856;52.178;21.176;2023-02-15T00:08:47;5.42;79.39
76897;SHT30;65856;52.178;21.176;2023-02-15T00:11:18;5.42;79.37
76897;SHT30;65856;52.178;21.176;2023-02-15T00:14:02;5.45;79.33
76897;SHT30;65856;52.178;21.176;2023-02-15T00:16:34;5.49;79.25
76897;SHT30;65856;52.178;21.176;2023-02-15T00:19:06;5.53;79.15
76897;SHT30;65856;52.178;21.176;2023-02-15T00:21:38;5.60;79.10
76897;SHT30;65856;52.178;21.176;2023-02-15T00:24:10;5.67;79.01
76897;SHT30;65856;52.178;21.176;2023-02-15T00:26:42;5.74;78.84
76897;SHT30;65856;52.178;21.176;2023-02-15T00:29:15;5.76;78.69
76897;SHT30;65856;52.178;21.176;2023-02-15T00:31:45;5.76;78.61
76897;SHT30;65856;52.178;21.176;2023-02-15T00:34:17;5.75;78.57
76897;SHT30;65856;52.178;21.176;2023-02-15T00:36:50;5.71;78.50
76897;SHT30;65856;52.178;21.176;2023-02-15T00:39:21;5.64;78.51
76897;SHT30;65856;52.178;21.176;2023-02-15T00:41:53;5.61;78.53
76897;SHT30;65856;52.178;21.176;2023-02-15T00:44:24;5.59;78.55
76897;SHT30;65856;52.178;21.176;2023-02-15T00:46:54;5.60;78.53
76897;SHT30;65856;52.178;21.176;2023-02-15T00:49:25;5.57;78.50
76897;SHT30;65856;52.178;21.176;2023-02-15T00:51:55;5.56;78.57
76897;SHT30;65856;52.178;21.176;2023-02-15T00:54:25;5.57;78.60
76897;SHT30;65856;52.178;21.176;2023-02-15T00:56:56;5.61;78.58
76897;SHT30;65856;52.178;21.176;2023-02-15T00:59:26;5.65;78.53
76897;SHT30;65856;52.178;21.176;2023-02-15T01:01:57;5.70;78.47
76897;SHT30;65856;52.178;21.176;2023-02-15T01:04:27;5.70;78.36
76897;SHT30;65856;52.178;21.176;2023-02-15T01:06:58;5.65;78.38
76897;SHT30;65856;52.178;21.176;2023-02-15T01:09:29;5.64;78.37
76897;SHT30;65856;52.178;21.176;2023-02-15T01:11:58;5.58;78.39
76897;SHT30;65856;52.178;21.176;2023-02-15T01:14:29;5.55;78.48
76897;SHT30;65856;52.178;21.176;2023-02-15T01:16:59;5.55;78.47
76897;SHT30;65856;52.178;21.176;2023-02-15T01:19:30;5.54;78.48
76897;SHT30;65856;52.178;21.176;2023-02-15T01:22:01;5.51;78.50
76897;SHT30;65856;52.178;21.176;2023-02-15T01:24:32;5.52;78.57
76897;SHT30;65856;52.178;21.176;2023-02-15T01:27:02;5.56;78.59
76897;SHT30;65856;52.178;21.176;2023-02-15T01:29:33;5.59;78.52
76897;SHT30;65856;52.178;21.176;2023-02-15T01:32:03;5.61;78.49
76897;SHT30;65856;52.178;21.176;2023-02-15T01:34:34;5.61;78.50
76897;SHT30;65856;52.178;21.176;2023-02-15T01:37:04;5.64;78.50
76897;SHT30;65856;52.178;21.176;2023-02-15T01:39:35;5.70;78.43
76897;SHT30;65856;52.178;21.176;2023-02-15T01:42:07;5.72;78.34
76897;SHT30;65856;52.178;21.176;2023-02-15T01:44:50;5.70;78.30
76897;SHT30;65856;52.178;21.176;2023-02-15T01:47:25;5.69;78.33
76897;SHT30;65856;52.178;21.176;2023-02-15T01:50:03;5.72;78.31
76897;SHT30;65856;52.178;21.176;2023-02-15T01:52:40;5.70;78.30
76897;SHT30;65856;52.178;21.176;2023-02-15T01:55:19;5.71;78.30
76897;SHT30;65856;52.178;21.176;2023-02-15T01:57:54;5.67;78.30
76897;SHT30;65856;52.178;21.176;2023-02-15T02:00:25;5.67;78.30
76897;SHT30;65856;52.178;21.176;2023-02-15T02:02:56;5.65;78.30
76897;SHT30;65856;52.178;21.176;2023-02-15T02:05:27;5.61;78.25
76897;SHT30;65856;52.178;21.176;2023-02-15T02:07:59;5.55;78.24
76897;SHT30;65856;52.178;21.176;2023-02-15T02:10:31;5.55;78.30
76897;SHT30;65856;52.178;21.176;2023-02-15T02:13:03;5.53;78.25
76897;SHT30;65856;52.178;21.176;2023-02-15T02:15:38;5.49;78.29
76897;SHT30;65856;52.178;21.176;2023-02-15T02:18:20;5.51;78.31
76897;SHT30;65856;52.178;21.176;2023-02-15T02:24:27;5.51;78.30
76897;SHT30;65856;52.178;21.176;2023-02-15T02:27:38;5.54;78.30
76897;SHT30;65856;52.178;21.176;2023-02-15T02:30:29;5.57;78.27
76897;SHT30;65856;52.178;21.176;2023-02-15T02:36:21;5.53;78.25
76897;SHT30;65856;52.178;21.176;2023-02-15T02:39:08;5.57;78.29
76897;SHT30;65856;52.178;21.176;2023-02-15T02:41:53;5.60;78.22
76897;SHT30;65856;52.178;21.176;2023-02-15T02:44:35;5.63;78.19
76897;SHT30;65856;52.178;21.176;2023-02-15T02:47:13;5.65;78.14
76897;SHT30;65856;52.178;21.176;2023-02-15T02:49:57;5.67;78.13
76897;SHT30;65856;52.178;21.176;2023-02-15T02:52:38;5.70;78.05
76897;SHT30;65856;52.178;21.176;2023-02-15T02:55:12;5.68;77.99
76897;SHT30;65856;52.178;21.176;2023-02-15T02:57:51;5.68;77.99
76897;SHT30;65856;52.178;21.176;2023-02-15T03:00:25;5.70;78.00
76897;SHT30;65856;52.178;21.176;2023-02-15T03:03:00;5.72;78.00
76897;SHT30;65856;52.178;21.176;2023-02-15T03:05:40;5.73;77.94
76897;SHT30;65856;52.178;21.176;2023-02-15T03:08:14;5.72;77.90
76897;SHT30;65856;52.178;21.176;2023-02-15T03:10:55;5.72;77.90
76897;SHT30;65856;52.178;21.176;2023-02-15T03:13:30;5.69;77.90
76897;SHT30;65856;52.178;21.176;2023-02-15T03:16:03;5.65;77.96
76897;SHT30;65856;52.178;21.176;2023-02-15T03:18:57;5.65;78.00
76897;SHT30;65856;52.178;21.176;2023-02-15T03:21:36;5.66;78.00
76897;SHT30;65856;52.178;21.176;2023-02-15T03:24:16;5.67;78.00
76897;SHT30;65856;52.178;21.176;2023-02-15T03:26:51;5.69;78.00
76897;SHT30;65856;52.178;21.176;2023-02-15T03:29:26;5.69;77.98
76897;SHT30;65856;52.178;21.176;2023-02-15T03:31:59;5.68;77.98
76897;SHT30;65856;52.178;21.176;2023-02-15T03:34:34;5.64;78.00
76897;SHT30;65856;52.178;21.176;2023-02-15T03:37:05;5.65;78.00
76897;SHT30;65856;52.178;21.176;2023-02-15T03:39:47;5.68;78.01
76897;SHT30;65856;52.178;21.176;2023-02-15T03:42:43;5.72;77.96
76897;SHT30;65856;52.178;21.176;2023-02-15T03:45:24;5.73;77.89
76897;SHT30;65856;52.178;21.176;2023-02-15T03:47:59;5.77;77.84
76897;SHT30;65856;52.178;21.176;2023-02-15T03:50:35;5.77;77.73
76897;SHT30;65856;52.178;21.176;2023-02-15T03:53:21;5.77;77.76
76897;SHT30;65856;52.178;21.176;2023-02-15T03:55:54;5.84;77.67
76897;SHT30;65856;52.178;21.176;2023-02-15T03:58:25;5.88;77.60
76897;SHT30;65856;52.178;21.176;2023-02-15T04:01:16;5.93;77.49
76897;SHT30;65856;52.178;21.176;2023-02-15T04:04:13;5.93;77.40
76897;SHT30;65856;52.178;21.176;2023-02-15T04:06:49;5.93;77.41
76897;SHT30;65856;52.178;21.176;2023-02-15T04:09:20;5.91;77.46
76897;SHT30;65856;52.178;21.176;2023-02-15T04:12:08;5.92;77.42
76897;SHT30;65856;52.178;21.176;2023-02-15T04:14:38;5.88;77.42
76897;SHT30;65856;52.178;21.176;2023-02-15T04:17:26;5.88;77.47
76897;SHT30;65856;52.178;21.176;2023-02-15T04:19:57;5.90;77.43
76897;SHT30;65856;52.178;21.176;2023-02-15T04:22:45;5.88;77.42
76897;SHT30;65856;52.178;21.176;2023-02-15T04:25:33;5.84;77.49
76897;SHT30;65856;52.178;21.176;2023-02-15T04:28:03;5.84;77.45
76897;SHT30;65856;52.178;21.176;2023-02-15T04:30:34;5.83;77.49
76897;SHT30;65856;52.178;21.176;2023-02-15T04:33:05;5.86;77.50
76897;SHT30;65856;52.178;21.176;2023-02-15T04:35:35;5.89;77.46
76897;SHT30;65856;52.178;21.176;2023-02-15T04:38:05;5.90;77.38
76897;SHT30;65856;52.178;21.176;2023-02-15T04:40:36;5.87;77.38
76897;SHT30;65856;52.178;21.176;2023-02-15T04:43:06;5.87;77.35
76897;SHT30;65856;52.178;21.176;2023-02-15T04:45:37;5.86;77.40
76897;SHT30;65856;52.178;21.176;2023-02-15T04:48:07;5.88;77.43
76897;SHT30;65856;52.178;21.176;2023-02-15T04:50:38;5.89;77.40
76897;SHT30;65856;52.178;21.176;2023-02-15T04:53:08;5.92;77.35
76897;SHT30;65856;52.178;21.176;2023-02-15T04:55:39;5.93;77.34
76897;SHT30;65856;52.178;21.176;2023-02-15T04:58:10;5.94;77.28
76897;SHT30;65856;52.178;21.176;2023-02-15T05:00:41;5.93;77.29
76897;SHT30;65856;52.178;21.176;2023-02-15T05:03:11;5.95;77.22
76897;SHT30;65856;52.178;21.176;2023-02-15T05:05:42;5.99;77.19
76897;SHT30;65856;52.178;21.176;2023-02-15T05:08:12;6.03;77.13
76897;SHT30;65856;52.178;21.176;2023-02-15T05:10:43;6.07;76.99
76897;SHT30;65856;52.178;21.176;2023-02-15T05:13:16;6.08;76.89
76897;SHT30;65856;52.178;21.176;2023-02-15T05:15:49;6.08;76.85
76897;SHT30;65856;52.178;21.176;2023-02-15T05:18:21;6.07;76.79
76897;SHT30;65856;52.178;21.176;2023-02-15T05:20:52;6.03;76.80
76897;SHT30;65856;52.178;21.176;2023-02-15T05:23:22;6.00;76.80
76897;SHT30;65856;52.178;21.176;2023-02-15T05:25:53;5.99;76.80
76897;SHT30;65856;52.178;21.176;2023-02-15T05:28:41;6.00;76.82
76897;SHT30;65856;52.178;21.176;2023-02-15T05:31:12;6.02;76.80
76897;SHT30;65856;52.178;21.176;2023-02-15T05:33:45;6.04;76.79
76897;SHT30;65856;52.178;21.176;2023-02-15T05:36:16;6.08;76.71
76897;SHT30;65856;52.178;21.176;2023-02-15T05:38:46;6.08;76.61
76897;SHT30;65856;52.178;21.176;2023-02-15T05:41:17;6.05;76.60
76897;SHT30;65856;52.178;21.176;2023-02-15T05:43:47;6.03;76.67
76897;SHT30;65856;52.178;21.176;2023-02-15T05:46:18;6.01;76.69
76897;SHT30;65856;52.178;21.176;2023-02-15T05:48:48;6.00;76.61
76897;SHT30;65856;52.178;21.176;2023-02-15T05:51:18;5.98;76.60
76897;SHT30;65856;52.178;21.176;2023-02-15T05:53:49;5.97;76.64
76897;SHT30;65856;52.178;21.176;2023-02-15T05:56:19;5.99;76.60
76897;SHT30;65856;52.178;21.176;2023-02-15T05:58:52;6.02;76.56
76897;SHT30;65856;52.178;21.176;2023-02-15T06:01:22;6.01;76.52
76897;SHT30;65856;52.178;21.176;2023-02-15T06:03:53;6.00;76.60
76897;SHT30;65856;52.178;21.176;2023-02-15T06:06:23;6.02;76.51
76897;SHT30;65856;52.178;21.176;2023-02-15T06:08:54;6.03;76.42
76897;SHT30;65856;52.178;21.176;2023-02-15T06:11:24;6.03;76.41
76897;SHT30;65856;52.178;21.176;2023-02-15T06:13:55;6.01;76.42
76897;SHT30;65856;52.178;21.176;2023-02-15T06:16:25;5.98;76.49
76897;SHT30;65856;52.178;21.176;2023-02-15T06:18:56;5.95;76.45
76897;SHT30;65856;52.178;21.176;2023-02-15T06:21:27;5.96;76.41
76897;SHT30;65856;52.178;21.176;2023-02-15T06:23:58;5.95;76.44
76897;SHT30;65856;52.178;21.176;2023-02-15T06:26:29;5.95;76.48
76897;SHT30;65856;52.178;21.176;2023-02-15T06:28:59;5.97;76.40
76897;SHT30;65856;52.178;21.176;2023-02-15T06:31:30;5.99;76.33
76897;SHT30;65856;52.178;21.176;2023-02-15T06:34:00;5.99;76.34
76897;SHT30;65856;52.178;21.176;2023-02-15T06:36:31;5.96;76.32
76897;SHT30;65856;52.178;21.176;2023-02-15T06:39:02;5.93;76.35
76897;SHT30;65856;52.178;21.176;2023-02-15T06:41:32;5.95;76.47
76897;SHT30;65856;52.178;21.176;2023-02-15T06:44:03;6.02;76.30
76897;SHT30;65856;52.178;21.176;2023-02-15T06:46:34;5.99;76.15
76897;SHT30;65856;52.178;21.176;2023-02-15T06:49:04;5.97;76.23
76897;SHT30;65856;52.178;21.176;2023-02-15T06:51:35;5.99;76.26
76897;SHT30;65856;52.178;21.176;2023-02-15T06:54:05;6.01;76.19
76897;SHT30;65856;52.178;21.176;2023-02-15T06:56:36;6.03;76.20
76897;SHT30;65856;52.178;21.176;2023-02-15T06:59:06;6.05;76.11
76897;SHT30;65856;52.178;21.176;2023-02-15T07:01:37;6.08;76.03
76897;SHT30;65856;52.178;21.176;2023-02-15T07:04:07;6.08;76.02
76897;SHT30;65856;52.178;21.176;2023-02-15T07:06:38;6.06;76.04
76897;SHT30;65856;52.178;21.176;2023-02-15T07:09:08;5.99;76.11
76897;SHT30;65856;52.178;21.176;2023-02-15T07:11:39;5.96;76.12
76897;SHT30;65856;52.178;21.176;2023-02-15T07:14:27;5.95;76.18
76897;SHT30;65856;52.178;21.176;2023-02-15T07:16:58;5.94;76.20
76897;SHT30;65856;52.178;21.176;2023-02-15T07:19:28;5.92;76.20
76897;SHT30;65856;52.178;21.176;2023-02-15T07:21:59;5.92;76.20
76897;SHT30;65856;52.178;21.176;2023-02-15T07:24:30;5.90;76.14
76897;SHT30;65856;52.178;21.176;2023-02-15T07:27:00;5.85;76.12
76897;SHT30;65856;52.178;21.176;2023-02-15T07:29:31;5.80;76.12
76897;SHT30;65856;52.178;21.176;2023-02-15T07:32:01;5.77;76.20
76897;SHT30;65856;52.178;21.176;2023-02-15T07:34:31;5.76;76.27
76897;SHT30;65856;52.178;21.176;2023-02-15T07:37:02;5.79;76.40
76897;SHT30;65856;52.178;21.176;2023-02-15T07:39:32;5.83;76.37
76897;SHT30;65856;52.178;21.176;2023-02-15T07:42:03;5.88;76.32
76897;SHT30;65856;52.178;21.176;2023-02-15T07:44:33;5.85;76.27
76897;SHT30;65856;52.178;21.176;2023-02-15T07:47:04;5.85;76.25
76897;SHT30;65856;52.178;21.176;2023-02-15T07:49:35;5.85;76.30
76897;SHT30;65856;52.178;21.176;2023-02-15T07:52:05;5.84;76.32
76897;SHT30;65856;52.178;21.176;2023-02-15T07:54:36;5.84;76.31
76897;SHT30;65856;52.178;21.176;2023-02-15T07:57:06;5.85;76.27
76897;SHT30;65856;52.178;21.176;2023-02-15T07:59:36;5.81;76.23
76897;SHT30;65856;52.178;21.176;2023-02-15T08:02:09;5.71;76.32
76897;SHT30;65856;52.178;21.176;2023-02-15T08:04:40;5.58;76.48
76897;SHT30;65856;52.178;21.176;2023-02-15T08:07:11;5.51;76.70
76897;SHT30;65856;52.178;21.176;2023-02-15T08:09:41;5.46;76.82
76897;SHT30;65856;52.178;21.176;2023-02-15T08:12:12;5.38;76.90
76897;SHT30;65856;52.178;21.176;2023-02-15T08:14:42;5.33;77.09
76897;SHT30;65856;52.178;21.176;2023-02-15T08:17:13;5.34;77.27
76897;SHT30;65856;52.178;21.176;2023-02-15T08:19:43;5.40;77.30
76897;SHT30;65856;52.178;21.176;2023-02-15T08:22:14;5.44;77.30
76897;SHT30;65856;52.178;21.176;2023-02-15T08:24:44;5.47;77.24
76897;SHT30;65856;52.178;21.176;2023-02-15T08:27:16;5.49;77.29
76897;SHT30;65856;52.178;21.176;2023-02-15T08:29:52;5.50;77.30
76897;SHT30;65856;52.178;21.176;2023-02-15T08:32:23;5.49;77.30
76897;SHT30;65856;52.178;21.176;2023-02-15T08:34:53;5.48;77.31
76897;SHT30;65856;52.178;21.176;2023-02-15T08:37:24;5.49;77.43
76897;SHT30;65856;52.178;21.176;2023-02-15T08:39:55;5.49;77.47
76897;SHT30;65856;52.178;21.176;2023-02-15T08:42:25;5.48;77.49
76897;SHT30;65856;52.178;21.176;2023-02-15T08:44:56;5.47;77.50
76897;SHT30;65856;52.178;21.176;2023-02-15T08:47:27;5.48;77.50
76897;SHT30;65856;52.178;21.176;2023-02-15T08:49:57;5.47;77.50
76897;SHT30;65856;52.178;21.176;2023-02-15T08:52:28;5.45;77.43
76897;SHT30;65856;52.178;21.176;2023-02-15T08:54:58;5.43;77.41
76897;SHT30;65856;52.178;21.176;2023-02-15T08:57:28;5.40;77.46
76897;SHT30;65856;52.178;21.176;2023-02-15T08:59:59;5.41;77.50
76897;SHT30;65856;52.178;21.176;2023-02-15T09:02:31;5.39;77.46
76897;SHT30;65856;52.178;21.176;2023-02-15T09:05:03;5.40;77.53
76897;SHT30;65856;52.178;21.176;2023-02-15T09:07:35;5.42;77.45
76897;SHT30;65856;52.178;21.176;2023-02-15T09:10:07;5.42;77.41
76897;SHT30;65856;52.178;21.176;2023-02-15T09:12:38;5.43;77.35
76897;SHT30;65856;52.178;21.176;2023-02-15T09:15:09;5.43;77.27
76897;SHT30;65856;52.178;21.176;2023-02-15T09:17:39;5.43;77.20
76897;SHT30;65856;52.178;21.176;2023-02-15T09:20:11;5.41;77.20
76897;SHT30;65856;52.178;21.176;2023-02-15T09:22:42;5.40;77.24
76897;SHT30;65856;52.178;21.176;2023-02-15T09:25:12;5.38;77.18
76897;SHT30;65856;52.178;21.176;2023-02-15T09:27:43;5.35;77.10
76897;SHT30;65856;52.178;21.176;2023-02-15T09:32:45;5.22;77.14
76897;SHT30;65856;52.178;21.176;2023-02-15T09:35:15;5.20;77.26
76897;SHT30;65856;52.178;21.176;2023-02-15T09:37:46;5.23;77.40
76897;SHT30;65856;52.178;21.176;2023-02-15T09:40:16;5.22;77.29
76897;SHT30;65856;52.178;21.176;2023-02-15T09:45:52;5.08;77.11
76897;SHT30;65856;52.178;21.176;2023-02-15T09:48:45;5.05;77.29
76897;SHT30;65856;52.178;21.176;2023-02-15T09:54:29;4.97;77.38
76897;SHT30;65856;52.178;21.176;2023-02-15T09:57:18;4.95;77.38
76897;SHT30;65856;52.178;21.176;2023-02-15T10:00:02;4.95;77.50
76897;SHT30;65856;52.178;21.176;2023-02-15T10:03:07;4.96;77.60
76897;SHT30;65856;52.178;21.176;2023-02-15T10:05:56;4.94;77.67
76897;SHT30;65856;52.178;21.176;2023-02-15T10:08:57;4.92;77.74
76897;SHT30;65856;52.178;21.176;2023-02-15T10:11:49;4.89;77.77
76897;SHT30;65856;52.178;21.176;2023-02-15T10:14:40;4.79;77.67
76897;SHT30;65856;52.178;21.176;2023-02-15T10:17:30;4.68;77.86
76897;SHT30;65856;52.178;21.176;2023-02-15T10:20:20;4.64;78.10
76897;SHT30;65856;52.178;21.176;2023-02-15T10:23:16;4.57;78.39
76897;SHT30;65856;52.178;21.176;2023-02-15T10:26:11;4.58;78.56
76897;SHT30;65856;52.178;21.176;2023-02-15T10:28:48;4.61;78.56
76897;SHT30;65856;52.178;21.176;2023-02-15T10:31:24;4.63;78.56
76897;SHT30;65856;52.178;21.176;2023-02-15T10:34:14;4.68;78.66
76897;SHT30;65856;52.178;21.176;2023-02-15T10:39:52;4.72;78.41
76897;SHT30;65856;52.178;21.176;2023-02-15T10:42:36;4.70;78.48
76897;SHT30;65856;52.178;21.176;2023-02-15T10:45:28;4.71;78.59
76897;SHT30;65856;52.178;21.176;2023-02-15T10:48:15;4.70;78.51
76897;SHT30;65856;52.178;21.176;2023-02-15T10:51:08;4.72;78.43
76897;SHT30;65856;52.178;21.176;2023-02-15T10:53:55;4.76;78.36
76897;SHT30;65856;52.178;21.176;2023-02-15T10:56:42;4.75;78.36
76897;SHT30;65856;52.178;21.176;2023-02-15T11:02:25;4.82;78.34
76897;SHT30;65856;52.178;21.176;2023-02-15T11:05:26;4.83;78.38
76897;SHT30;65856;52.178;21.176;2023-02-15T11:08:08;4.83;78.47
76897;SHT30;65856;52.178;21.176;2023-02-15T11:10:42;4.87;78.52
76897;SHT30;65856;52.178;21.176;2023-02-15T11:13:18;4.91;78.43
76897;SHT30;65856;52.178;21.176;2023-02-15T11:15:54;4.88;78.39
76897;SHT30;65856;52.178;21.176;2023-02-15T11:18:32;4.85;78.37
76897;SHT30;65856;52.178;21.176;2023-02-15T11:21:07;4.87;78.39
76897;SHT30;65856;52.178;21.176;2023-02-15T11:23:46;4.88;78.29
76897;SHT30;65856;52.178;21.176;2023-02-15T11:26:19;4.85;78.20
76897;SHT30;65856;52.178;21.176;2023-02-15T11:29:01;4.81;78.12
76897;SHT30;65856;52.178;21.176;2023-02-15T11:31:42;4.74;78.26
76897;SHT30;65856;52.178;21.176;2023-02-15T11:34:18;4.74;78.38
76897;SHT30;65856;52.178;21.176;2023-02-15T11:36:55;4.74;78.44
76897;SHT30;65856;52.178;21.176;2023-02-15T11:39:33;4.75;78.49
76897;SHT30;65856;52.178;21.176;2023-02-15T11:42:06;4.74;78.50
76897;SHT30;65856;52.178;21.176;2023-02-15T11:44:43;4.67;78.51
76897;SHT30;65856;52.178;21.176;2023-02-15T11:47:26;4.62;78.65
76897;SHT30;65856;52.178;21.176;2023-02-15T11:49:57;4.59;78.72
76897;SHT30;65856;52.178;21.176;2023-02-15T11:52:29;4.53;78.87
76897;SHT30;65856;52.178;21.176;2023-02-15T11:55:00;4.48;78.99
76897;SHT30;65856;52.178;21.176;2023-02-15T11:57:39;4.48;79.10
76897;SHT30;65856;52.178;21.176;2023-02-15T12:00:20;4.49;79.18
76897;SHT30;65856;52.178;21.176;2023-02-15T12:03:03;4.49;79.28
76897;SHT30;65856;52.178;21.176;2023-02-15T12:05:44;4.49;79.30
76897;SHT30;65856;52.178;21.176;2023-02-15T12:08:21;4.48;79.38
76897;SHT30;65856;52.178;21.176;2023-02-15T12:11:00;4.47;79.41
76897;SHT30;65856;52.178;21.176;2023-02-15T12:13:39;4.48;79.36
76897;SHT30;65856;52.178;21.176;2023-02-15T12:16:26;4.47;79.48
76897;SHT30;65856;52.178;21.176;2023-02-15T12:19:11;4.47;79.50
76897;SHT30;65856;52.178;21.176;2023-02-15T12:21:56;4.52;79.50
76897;SHT30;65856;52.178;21.176;2023-02-15T12:24:29;4.60;79.49
76897;SHT30;65856;52.178;21.176;2023-02-15T12:27:05;4.63;79.39
76897;SHT30;65856;52.178;21.176;2023-02-15T12:29:45;4.61;79.40
76897;SHT30;65856;52.178;21.176;2023-02-15T12:32:22;4.56;79.38
76897;SHT30;65856;52.178;21.176;2023-02-15T12:34:56;4.53;79.40
76897;SHT30;65856;52.178;21.176;2023-02-15T12:37:36;4.52;79.49
76897;SHT30;65856;52.178;21.176;2023-02-15T12:40:22;4.49;79.60
76897;SHT30;65856;52.178;21.176;2023-02-15T12:42:55;4.46;79.70
76897;SHT30;65856;52.178;21.176;2023-02-15T12:45:27;4.46;79.77
76897;SHT30;65856;52.178;21.176;2023-02-15T12:48:12;4.53;79.80
76897;SHT30;65856;52.178;21.176;2023-02-15T12:50:46;4.61;79.80
76897;SHT30;65856;52.178;21.176;2023-02-15T12:53:19;4.67;79.75
76897;SHT30;65856;52.178;21.176;2023-02-15T12:55:59;4.74;79.71
76897;SHT30;65856;52.178;21.176;2023-02-15T12:58:31;4.84;79.62
76897;SHT30;65856;52.178;21.176;2023-02-15T13:01:08;4.92;79.49
76897;SHT30;65856;52.178;21.176;2023-02-15T13:03:53;4.97;79.35
76897;SHT30;65856;52.178;21.176;2023-02-15T13:06:28;4.96;79.27
76897;SHT30;65856;52.178;21.176;2023-02-15T13:09:06;4.99;79.30
76897;SHT30;65856;52.178;21.176;2023-02-15T13:11:47;5.05;79.20
76897;SHT30;65856;52.178;21.176;2023-02-15T13:14:18;5.03;79.04
76897;SHT30;65856;52.178;21.176;2023-02-15T13:16:56;4.93;79.04
76897;SHT30;65856;52.178;21.176;2023-02-15T13:19:31;4.91;79.13
76897;SHT30;65856;52.178;21.176;2023-02-15T13:22:08;4.87;79.20
76897;SHT30;65856;52.178;21.176;2023-02-15T13:24:45;4.84;79.21
76897;SHT30;65856;52.178;21.176;2023-02-15T13:27:19;4.72;79.14
76897;SHT30;65856;52.178;21.176;2023-02-15T13:29:56;4.63;79.26
76897;SHT30;65856;52.178;21.176;2023-02-15T13:32:32;4.61;79.35
76897;SHT30;65856;52.178;21.176;2023-02-15T13:35:10;4.59;79.42
76897;SHT30;65856;52.178;21.176;2023-02-15T13:37:57;4.56;79.50
76897;SHT30;65856;52.178;21.176;2023-02-15T13:40:41;4.56;79.50
76897;SHT30;65856;52.178;21.176;2023-02-15T13:43:33;4.58;79.50
76897;SHT30;65856;52.178;21.176;2023-02-15T13:46:21;4.59;79.46
76897;SHT30;65856;52.178;21.176;2023-02-15T13:49:14;4.61;79.56
76897;SHT30;65856;52.178;21.176;2023-02-15T13:52:05;4.66;79.51
76897;SHT30;65856;52.178;21.176;2023-02-15T13:54:55;4.68;79.57
76897;SHT30;65856;52.178;21.176;2023-02-15T13:57:55;4.75;79.56
76897;SHT30;65856;52.178;21.176;2023-02-15T14:00:51;4.77;79.42
76897;SHT30;65856;52.178;21.176;2023-02-15T14:03:49;4.77;79.46
76897;SHT30;65856;52.178;21.176;2023-02-15T14:09:43;4.69;79.39
76897;SHT30;65856;52.178;21.176;2023-02-15T14:12:29;4.64;79.43
76897;SHT30;65856;52.178;21.176;2023-02-15T14:15:24;4.62;79.45
76897;SHT30;65856;52.178;21.176;2023-02-15T14:18:09;4.62;79.45
76897;SHT30;65856;52.178;21.176;2023-02-15T14:20:56;4.67;79.47
76897;SHT30;65856;52.178;21.176;2023-02-15T14:23:38;4.76;79.53
76897;SHT30;65856;52.178;21.176;2023-02-15T14:26:23;4.88;79.26
76897;SHT30;65856;52.178;21.176;2023-02-15T14:29:10;4.89;79.13
76897;SHT30;65856;52.178;21.176;2023-02-15T14:31:53;4.88;79.21
76897;SHT30;65856;52.178;21.176;2023-02-15T14:34:34;4.92;79.24
76897;SHT30;65856;52.178;21.176;2023-02-15T14:37:16;4.96;79.15
76897;SHT30;65856;52.178;21.176;2023-02-15T14:40:00;4.93;79.10
76897;SHT30;65856;52.178;21.176;2023-02-15T14:42:58;4.85;79.09
76897;SHT30;65856;52.178;21.176;2023-02-15T14:45:40;4.79;79.18
76897;SHT30;65856;52.178;21.176;2023-02-15T14:48:20;4.75;79.28
76897;SHT30;65856;52.178;21.176;2023-02-15T14:50:57;4.76;79.30
76897;SHT30;65856;52.178;21.176;2023-02-15T14:53:38;4.78;79.28
76897;SHT30;65856;52.178;21.176;2023-02-15T14:56:19;4.79;79.16
76897;SHT30;65856;52.178;21.176;2023-02-15T14:59:11;4.77;79.11
76897;SHT30;65856;52.178;21.176;2023-02-15T15:01:52;4.73;79.10
76897;SHT30;65856;52.178;21.176;2023-02-15T15:04:38;4.67;79.11
76897;SHT30;65856;52.178;21.176;2023-02-15T15:07:14;4.61;79.21
76897;SHT30;65856;52.178;21.176;2023-02-15T15:09:58;4.57;79.34
76897;SHT30;65856;52.178;21.176;2023-02-15T15:12:42;4.57;79.42
76897;SHT30;65856;52.178;21.176;2023-02-15T15:15:14;4.56;79.50
76897;SHT30;65856;52.178;21.176;2023-02-15T15:18:15;4.52;79.51
76897;SHT30;65856;52.178;21.176;2023-02-15T15:33:46;4.41;79.70
76897;SHT30;65856;52.178;21.176;2023-02-15T15:40:21;4.54;79.71
76897;SHT30;65856;52.178;21.176;2023-02-15T15:43:53;4.51;79.66
76897;SHT30;65856;52.178;21.176;2023-02-15T15:47:18;4.50;79.73
76897;SHT30;65856;52.178;21.176;2023-02-15T15:50:11;4.58;79.70
76897;SHT30;65856;52.178;21.176;2023-02-15T15:52:49;4.61;79.68
76897;SHT30;65856;52.178;21.176;2023-02-15T15:55:23;4.56;79.63
76897;SHT30;65856;52.178;21.176;2023-02-15T15:57:58;4.55;79.94
76897;SHT30;65856;52.178;21.176;2023-02-15T16:00:35;4.66;79.77
76897;SHT30;65856;52.178;21.176;2023-02-15T16:03:15;4.68;79.54
76897;SHT30;65856;52.178;21.176;2023-02-15T16:05:50;4.67;79.48
76897;SHT30;65856;52.178;21.176;2023-02-15T16:08:30;4.68;79.37
76897;SHT30;65856;52.178;21.176;2023-02-15T16:11:15;4.64;79.29
76897;SHT30;65856;52.178;21.176;2023-02-15T16:13:51;4.56;79.24
76897;SHT30;65856;52.178;21.176;2023-02-15T16:16:23;4.51;79.29
76897;SHT30;65856;52.178;21.176;2023-02-15T16:18:57;4.50;79.30
76897;SHT30;65856;52.178;21.176;2023-02-15T16:21:29;4.48;79.30
76897;SHT30;65856;52.178;21.176;2023-02-15T16:24:06;4.48;79.30
76897;SHT30;65856;52.178;21.176;2023-02-15T16:27:09;4.46;79.37
76897;SHT30;65856;52.178;21.176;2023-02-15T16:29:54;4.43;79.40
76897;SHT30;65856;52.178;21.176;2023-02-15T16:32:24;4.40;79.42
76897;SHT30;65856;52.178;21.176;2023-02-15T16:34:57;4.41;79.51
76897;SHT30;65856;52.178;21.176;2023-02-15T16:37:31;4.40;79.48
76897;SHT30;65856;52.178;21.176;2023-02-15T16:40:03;4.35;79.50
76897;SHT30;65856;52.178;21.176;2023-02-15T16:42:52;4.32;79.60
76897;SHT30;65856;52.178;21.176;2023-02-15T16:45:28;4.33;79.66
76897;SHT30;65856;52.178;21.176;2023-02-15T16:48:04;4.31;79.60
76897;SHT30;65856;52.178;21.176;2023-02-15T16:50:40;4.27;79.61
76897;SHT30;65856;52.178;21.176;2023-02-15T16:53:20;4.22;79.68
76897;SHT30;65856;52.178;21.176;2023-02-15T16:55:54;4.19;79.74
76897;SHT30;65856;52.178;21.176;2023-02-15T16:58:29;4.18;79.80
76897;SHT30;65856;52.178;21.176;2023-02-15T17:01:07;4.17;79.80
76897;SHT30;65856;52.178;21.176;2023-02-15T17:03:42;4.15;79.89
76897;SHT30;65856;52.178;21.176;2023-02-15T17:06:21;4.11;79.86
76897;SHT30;65856;52.178;21.176;2023-02-15T17:08:55;4.10;79.96
76897;SHT30;65856;52.178;21.176;2023-02-15T17:11:41;4.11;79.98